Time;durP1;ratioP1;P1;durP2;ratioP2;P2;SDS_P1;SDS_P2;PMS_P1;PMS_P2;Temp;Humidity;BMP_temperature;BMP_pressure;BME280_temperature;BME280_humidity;BME280_pressure;Samples;Min_cycle;Max_cycle;Signal;HPM_P1;HPM_P2
2022/12/31 08:50:17;;;;;;;18.53;11.43;;;;;;;4.25;100.00;100482.06;1788791;78;28518;-53
2022/12/31 08:52:45;;;;;;;17.57;10.77;;;;;;;4.29;100.00;100502.44;1746072;80;21152;-53
2022/12/31 08:55:17;;;;;;;18.33;10.77;;;;;;;4.40;100.00;100496.99;1745617;80;21844;-53
2022/12/31 08:58:00;;;;;;;17.92;11.33;;;;;;;4.48;100.00;100503.12;1744130;80;21002;-53
2022/12/31 09:00:27;;;;;;;14.37;9.73;;;;;;;4.58;100.00;100503.45;1731034;80;21096;-53
2022/12/31 09:03:28;;;;;;;16.23;11.17;;;;;;;4.69;100.00;100500.17;1760594;80;21629;-53
2022/12/31 09:06:21;;;;;;;17.33;11.80;;;;;;;4.78;100.00;100493.84;1754649;80;21033;-54
2022/12/31 09:09:08;;;;;;;14.27;10.10;;;;;;;4.90;100.00;100481.69;1750996;80;21794;-53
2022/12/31 09:11:55;;;;;;;15.93;11.07;;;;;;;5.00;100.00;100476.66;1749176;80;21128;-53
2022/12/31 09:14:47;;;;;;;16.37;11.87;;;;;;;5.09;100.00;100490.33;1750727;80;21506;-54
2022/12/31 09:17:45;;;;;;;17.63;12.07;;;;;;;5.15;100.00;100481.77;1728897;80;21707;-51
2022/12/31 09:20:28;;;;;;;18.10;12.40;;;;;;;5.22;100.00;100491.45;1724084;81;21130;-52
2022/12/31 09:22:55;;;;;;;17.87;11.37;;;;;;;5.29;100.00;100493.56;1717901;81;22287;-52
2022/12/31 09:25:23;;;;;;;15.23;10.40;;;;;;;5.38;100.00;100487.20;1722089;81;21044;-51
2022/12/31 09:28:19;;;;;;;14.30;9.70;;;;;;;5.45;100.00;100487.53;1718341;81;21240;-54
2022/12/31 09:31:06;;;;;;;14.47;9.55;;;;;;;5.55;100.00;100481.14;1689035;83;21124;-52
2022/12/31 09:33:48;;;;;;;17.50;10.80;;;;;;;5.64;100.00;100475.20;1693699;83;21088;-54
2022/12/31 09:36:23;;;;;;;15.60;10.13;;;;;;;5.76;100.00;100470.11;1668842;84;21813;-53
2022/12/31 09:39:24;;;;;;;12.13;10.43;;;;;;;5.85;100.00;100469.95;1676590;84;21014;-53
2022/12/31 09:42:10;;;;;;;11.87;9.13;;;;;;;5.95;100.00;100474.27;1675044;84;21449;-53
2022/12/31 09:45:14;;;;;;;11.90;8.37;;;;;;;6.06;100.00;100476.72;1670186;84;21449;-53
2022/12/31 09:47:47;;;;;;;11.25;7.50;;;;;;;6.16;100.00;100486.79;1669145;84;21409;-54
2022/12/31 09:50:45;;;;;;;13.35;7.87;;;;;;;6.26;100.00;100485.26;1660723;84;21810;-54
2022/12/31 09:53:22;;;;;;;13.78;7.90;;;;;;;6.34;100.00;100482.43;1669346;84;21105;-53
2022/12/31 09:56:18;;;;;;;13.18;8.13;;;;;;;6.44;100.00;100474.66;1665694;84;21126;-53
2022/12/31 09:59:05;;;;;;;15.95;7.62;;;;;;;6.51;100.00;100474.08;1653831;85;21534;-54
2022/12/31 10:02:00;;;;;;;12.80;8.23;;;;;;;6.57;100.00;100455.22;1660501;85;21069;-55
2022/12/31 10:05:04;;;;;;;12.98;8.35;;;;;;;6.60;100.00;100444.46;1704123;82;22249;-54
2022/12/31 10:08:00;;;;;;;13.48;9.03;;;;;;;6.62;100.00;100444.86;1671824;83;21100;-54
2022/12/31 10:10:42;;;;;;;13.38;8.50;;;;;;;6.67;100.00;100438.06;1708596;82;21651;-54
2022/12/31 10:13:37;;;;;;;12.90;8.30;;;;;;;6.72;100.00;100433.52;1668001;82;21094;-56
2022/12/31 10:16:25;;;;;;;15.35;9.20;;;;;;;6.76;100.00;100431.17;1712201;82;21083;-53
2022/12/31 10:19:18;;;;;;;12.73;9.18;;;;;;;6.79;100.00;100423.98;1710672;82;21942;-54
2022/12/31 10:22:11;;;;;;;12.45;9.48;;;;;;;6.82;100.00;100419.87;1674938;83;21353;-54
2022/12/31 10:25:01;;;;;;;11.15;8.53;;;;;;;6.84;100.00;100410.02;1703801;82;21076;-56
2022/12/31 10:28:01;;;;;;;13.13;8.98;;;;;;;6.84;100.00;100405.12;1691712;82;21118;-54
2022/12/31 10:30:32;;;;;;;13.75;9.05;;;;;;;6.81;100.00;100399.37;1708330;82;21047;-55
2022/12/31 10:33:07;;;;;;;13.80;9.15;;;;;;;6.80;100.00;100400.29;1702411;82;21736;-54
2022/12/31 10:35:51;;;;;;;17.52;10.15;;;;;;;6.80;100.00;100397.61;1708651;82;21102;-54
2022/12/31 10:38:36;;;;;;;14.38;9.85;;;;;;;6.81;100.00;100401.17;1710859;82;21046;-55
2022/12/31 10:41:43;;;;;;;14.50;7.80;;;;;;;6.81;100.00;100395.82;1711748;82;21058;-55
2022/12/31 10:44:20;;;;;;;13.62;8.90;;;;;;;6.84;100.00;100389.07;1708213;82;21062;-57
2022/12/31 10:47:23;;;;;;;14.03;9.38;;;;;;;6.87;100.00;100385.45;1705009;82;21868;-55
2022/12/31 10:50:36;;;;;;;14.63;9.43;;;;;;;6.86;100.00;100383.23;1717876;82;21499;-54
2022/12/31 10:53:34;;;;;;;14.53;9.93;;;;;;;6.85;100.00;100381.47;1714535;82;21086;-53
2022/12/31 10:56:40;;;;;;;19.05;9.68;;;;;;;6.83;100.00;100376.60;1674939;83;21133;-55
2022/12/31 10:59:30;;;;;;;15.43;9.33;;;;;;;6.80;100.00;100385.57;1712476;82;21301;-53
2022/12/31 11:02:31;;;;;;;10.15;8.70;;;;;;;6.76;100.00;100382.56;1703296;82;21789;-53
2022/12/31 11:05:12;;;;;;;10.00;8.43;;;;;;;6.73;100.00;100383.08;1715520;82;21235;-54
2022/12/31 11:08:27;;;;;;;9.65;7.62;;;;;;;6.72;100.00;100382.68;1710633;82;21031;-53
2022/12/31 11:11:22;;;;;;;10.88;8.10;;;;;;;6.71;100.00;100379.13;1661826;84;21099;-54
2022/12/31 11:14:15;;;;;;;14.40;12.33;;;;;;;6.70;100.00;100357.30;1699198;82;21108;-54
2022/12/31 11:17:09;;;;;;;11.05;8.75;;;;;;;6.69;100.00;100358.66;1706034;82;21958;-55
2022/12/31 11:20:13;;;;;;;14.47;10.13;;;;;;;6.68;100.00;100367.59;1707332;82;21066;-57
2022/12/31 11:22:54;;;;;;;11.80;9.18;;;;;;;6.65;100.00;100369.88;1717315;82;21133;-53
2022/12/31 11:25:34;;;;;;;14.95;9.70;;;;;;;6.61;100.00;100371.33;1672836;83;21146;-55
2022/12/31 11:28:18;;;;;;;12.45;7.92;;;;;;;6.60;100.00;100374.46;1713909;82;21009;-54
2022/12/31 11:31:05;;;;;;;17.80;10.08;;;;;;;6.59;100.00;100370.02;1705704;82;21778;-57
2022/12/31 11:33:54;;;;;;;12.35;9.80;;;;;;;6.60;100.00;100359.75;1702965;82;21054;-55
2022/12/31 11:36:53;;;;;;;12.18;9.78;;;;;;;6.63;100.00;100360.14;1675694;84;21067;-57
2022/12/31 11:40:00;;;;;;;16.48;9.75;;;;;;;6.62;100.00;100347.23;1706351;82;21122;-55
2022/12/31 11:42:41;;;;;;;14.68;10.35;;;;;;;6.62;100.00;100351.23;1678671;83;21124;-56
2022/12/31 11:45:54;;;;;;;13.15;10.25;;;;;;;6.62;100.00;100350.36;1701195;82;21845;-52
2022/12/31 11:48:37;;;;;;;16.40;10.90;;;;;;;6.63;100.00;100354.34;1707550;82;21045;-54
2022/12/31 11:51:28;;;;;;;13.65;9.80;;;;;;;6.62;100.00;100348.56;1713704;81;22161;-54
2022/12/31 11:54:15;;;;;;;18.67;11.75;;;;;;;6.61;100.00;100342.78;1723965;81;21096;-56
2022/12/31 11:56:54;;;;;;;14.95;11.95;;;;;;;6.59;100.00;100351.30;1722436;81;21058;-53
2022/12/31 11:59:21;;;;;;;22.75;12.70;;;;;;;6.56;100.00;100347.34;1707187;81;22166;-56
2022/12/31 12:02:24;;;;;;;18.90;12.20;;;;;;;6.53;100.00;100343.42;1724030;81;21519;-53
2022/12/31 12:04:51;;;;;;;23.30;12.78;;;;;;;6.52;100.00;100343.45;1724590;81;21363;-54
2022/12/31 12:07:17;;;;;;;15.35;10.75;;;;;;;6.49;100.00;100344.39;1720312;81;21049;-53
2022/12/31 12:09:44;;;;;;;15.38;12.25;;;;;;;6.50;100.00;100333.23;1722054;81;21056;-55
2022/12/31 12:12:12;;;;;;;16.37;12.40;;;;;;;6.50;100.00;100331.89;1723997;81;21795;-53
2022/12/31 12:14:42;;;;;;;18.32;13.53;;;;;;;6.51;100.00;100324.30;1724003;81;21084;-56
2022/12/31 12:17:14;;;;;;;26.73;13.62;;;;;;;6.52;100.00;100327.41;1714595;81;21021;-57
2022/12/31 12:19:46;;;;;;;16.25;11.97;;;;;;;6.53;100.00;100336.73;1710767;81;21055;-55
2022/12/31 12:22:21;;;;;;;17.45;12.95;;;;;;;6.52;100.00;100324.27;1723136;81;21064;-54
2022/12/31 12:24:57;;;;;;;17.17;12.88;;;;;;;6.53;100.00;100325.16;1723176;81;21766;-54
2022/12/31 12:27:28;;;;;;;18.62;12.55;;;;;;;6.53;100.00;100327.83;1728788;81;21073;-54
2022/12/31 12:29:55;;;;;;;21.25;13.62;;;;;;;6.51;100.00;100320.29;1705247;81;21021;-55
2022/12/31 12:32:24;;;;;;;22.60;13.35;;;;;;;6.49;100.00;100317.64;1716817;81;21084;-55
2022/12/31 12:34:51;;;;;;;21.05;13.85;;;;;;;6.48;100.00;100315.00;1727514;81;21088;-55
2022/12/31 12:37:34;;;;;;;17.65;13.30;;;;;;;6.46;100.00;100303.02;1722750;81;23098;-55
2022/12/31 12:40:22;;;;;;;18.35;13.10;;;;;;;6.46;100.00;100299.02;1716232;81;21052;-57
2022/12/31 12:42:51;;;;;;;19.05;13.48;;;;;;;6.43;100.00;100303.08;1712486;81;21120;-53
2022/12/31 12:45:26;;;;;;;20.17;13.38;;;;;;;6.40;100.00;100308.48;1712530;81;21079;-54
2022/12/31 12:47:56;;;;;;;20.02;12.70;;;;;;;6.37;100.00;100310.80;1726003;81;21041;-53
2022/12/31 12:50:25;;;;;;;17.02;12.45;;;;;;;6.34;100.00;100316.20;1721039;81;21796;-54
2022/12/31 12:53:34;;;;;;;16.75;11.90;;;;;;;6.31;100.00;100326.95;1721786;82;21025;-56
2022/12/31 12:56:41;;;;;;;16.00;11.50;;;;;;;6.28;100.00;100331.05;1708468;82;21087;-53
2022/12/31 12:59:48;;;;;;;23.45;13.15;;;;;;;6.25;100.00;100326.21;1712288;82;21043;-57
2022/12/31 13:02:35;;;;;;;20.55;13.80;;;;;;;6.22;100.00;100332.49;1698565;82;21058;-53
2022/12/31 13:05:30;;;;;;;19.07;13.48;;;;;;;6.18;100.00;100325.92;1705363;82;22924;-52
2022/12/31 13:08:41;;;;;;;18.92;13.53;;;;;;;6.15;100.00;100321.97;1710362;82;21080;-51
2022/12/31 13:11:33;;;;;;;19.02;13.03;;;;;;;6.11;100.00;100315.83;1700586;82;21059;-53
2022/12/31 13:14:14;;;;;;;22.52;12.03;;;;;;;6.05;100.00;100310.13;1706076;82;21042;-52
2022/12/31 13:16:59;;;;;;;14.90;11.93;;;;;;;6.02;100.00;100306.66;1707967;82;21089;-55
2022/12/31 13:19:58;;;;;;;21.60;12.82;;;;;;;5.98;100.00;100317.86;1709772;82;21927;-54
2022/12/31 13:22:31;;;;;;;19.33;13.07;;;;;;;5.95;100.00;100307.25;1702099;82;21078;-55
2022/12/31 13:25:41;;;;;;;19.60;13.73;;;;;;;5.93;100.00;100308.19;1708282;82;21160;-53
2022/12/31 13:28:11;;;;;;;23.20;15.60;;;;;;;5.90;100.00;100310.45;1702240;82;21037;-52
2022/12/31 13:30:44;;;;;;;22.27;15.60;;;;;;;5.85;100.00;100309.65;1714099;82;21528;-53
2022/12/31 13:33:19;;;;;;;20.25;13.88;;;;;;;5.83;100.00;100314.59;1710093;82;21360;-53
2022/12/31 13:35:56;;;;;;;22.77;14.18;;;;;;;5.82;100.00;100315.50;1703731;82;21060;-53
2022/12/31 13:38:27;;;;;;;22.17;15.57;;;;;;;5.78;100.00;100315.15;1720426;82;21013;-53
2022/12/31 13:41:25;;;;;;;23.95;17.42;;;;;;;5.75;100.00;100309.41;1716582;82;21111;-55
2022/12/31 13:44:27;;;;;;;21.27;15.93;;;;;;;5.74;100.00;100314.31;1703473;82;21114;-54
2022/12/31 13:47:13;;;;;;;23.20;17.10;;;;;;;5.74;100.00;100306.30;1713654;82;21969;-52
2022/12/31 13:49:52;;;;;;;21.97;15.83;;;;;;;5.74;100.00;100304.09;1702169;82;21673;-54
2022/12/31 13:52:53;;;;;;;19.10;14.70;;;;;;;5.73;100.00;100296.52;1708303;82;21052;-54
2022/12/31 13:55:24;;;;;;;19.80;14.53;;;;;;;5.71;100.00;100287.66;1700232;82;21085;-55
2022/12/31 13:58:17;;;;;;;20.70;13.80;;;;;;;5.66;100.00;100287.77;1716322;82;21042;-52
2022/12/31 14:00:55;;;;;;;20.20;14.03;;;;;;;5.64;100.00;100295.38;1664901;83;21819;-54
2022/12/31 14:03:35;;;;;;;20.50;14.60;;;;;;;5.60;100.00;100294.56;1656306;85;21667;-54
2022/12/31 14:06:26;;;;;;;20.00;14.73;;;;;;;5.58;100.00;100295.50;1650607;85;21132;-54
2022/12/31 14:08:52;;;;;;;25.40;16.53;;;;;;;5.56;100.00;100298.64;1700953;82;21077;-53
2022/12/31 14:11:36;;;;;;;22.63;15.47;;;;;;;5.53;100.00;100300.06;1710629;82;21529;-54
2022/12/31 14:14:25;;;;;;;21.90;15.85;;;;;;;5.51;100.00;100297.41;1705447;82;22686;-55
2022/12/31 14:17:18;;;;;;;19.80;15.17;;;;;;;5.49;100.00;100304.56;1709893;82;22168;-53
2022/12/31 14:20:09;;;;;;;25.07;15.77;;;;;;;5.45;100.00;100301.52;1699821;82;21070;-53
2022/12/31 14:22:50;;;;;;;21.40;16.23;;;;;;;5.42;100.00;100298.04;1700104;82;21049;-53
2022/12/31 14:25:36;;;;;;;25.50;15.53;;;;;;;5.40;100.00;100299.84;1702886;82;21102;-54
2022/12/31 14:28:03;;;;;;;23.20;16.40;;;;;;;5.38;100.00;100298.53;1699136;82;21810;-56
2022/12/31 14:30:34;;;;;;;18.93;15.20;;;;;;;5.36;100.00;100285.66;1679391;83;20999;-55
2022/12/31 14:33:30;;;;;;;23.57;16.57;;;;;;;5.36;100.00;100284.81;1659352;84;21532;-57
2022/12/31 14:36:20;;;;;;;21.63;15.00;;;;;;;5.35;100.00;100282.59;1706614;82;21150;-56
2022/12/31 14:39:31;;;;;;;23.53;17.80;;;;;;;5.33;100.00;100275.06;1669562;83;21093;-56
2022/12/31 14:42:42;;;;;;;22.37;14.30;;;;;;;5.32;100.00;100270.63;1691513;82;23238;-53
2022/12/31 14:45:42;;;;;;;20.60;14.30;;;;;;;5.29;100.00;100272.89;1710861;82;21062;-55
2022/12/31 14:48:20;;;;;;;23.30;15.53;;;;;;;5.29;100.00;100265.34;1701042;82;21490;-53
2022/12/31 14:50:47;;;;;;;21.87;15.43;;;;;;;5.28;100.00;100267.13;1714554;82;21122;-56
2022/12/31 14:53:21;;;;;;;20.77;16.00;;;;;;;5.30;100.00;100284.45;1719633;81;21052;-56
2022/12/31 14:56:04;;;;;;;18.40;14.80;;;;;;;5.30;100.00;100280.00;1718787;81;26770;-55
2022/12/31 14:58:37;;;;;;;21.33;15.67;;;;;;;5.31;100.00;100279.55;1720846;81;21124;-54
2022/12/31 15:01:07;;;;;;;25.10;17.60;;;;;;;5.32;100.00;100279.97;1717245;81;21448;-54
2022/12/31 15:03:38;;;;;;;23.33;16.50;;;;;;;5.35;100.00;100283.05;1726259;81;21132;-55
2022/12/31 15:06:25;;;;;;;23.20;15.80;;;;;;;5.35;100.00;100280.38;1718822;81;21630;-53
2022/12/31 15:09:16;;;;;;;26.10;16.93;;;;;;;5.35;100.00;100270.59;1712200;81;22457;-54
2022/12/31 15:12:18;;;;;;;20.47;15.33;;;;;;;5.37;100.00;100272.74;1724095;81;21102;-54
2022/12/31 15:15:18;;;;;;;22.35;18.07;;;;;;;5.37;100.00;100262.06;1720345;81;21084;-56
2022/12/31 15:18:18;;;;;;;24.50;17.20;;;;;;;5.40;100.00;100271.81;1719180;81;21041;-53
2022/12/31 15:21:12;;;;;;;24.40;17.57;;;;;;;5.39;100.00;100264.26;1721054;81;21033;-54
2022/12/31 15:23:41;;;;;;;26.60;19.10;;;;;;;5.38;100.00;100261.16;1722114;81;21861;-53
2022/12/31 15:26:23;;;;;;;24.63;17.27;;;;;;;5.37;100.00;100267.86;1718951;81;21590;-58
2022/12/31 15:29:04;;;;;;;22.57;15.70;;;;;;;5.37;100.00;100276.75;1721604;81;21074;-54
2022/12/31 15:31:32;;;;;;;22.77;14.57;;;;;;;5.38;100.00;100288.31;1711158;81;21065;-53
2022/12/31 15:34:02;;;;;;;25.07;15.93;;;;;;;5.38;100.00;100278.97;1720228;81;21136;-57
2022/12/31 15:36:41;;;;;;;27.37;16.47;;;;;;;5.39;100.00;100272.27;1720553;81;22711;-52
2022/12/31 15:39:17;;;;;;;25.35;16.10;;;;;;;5.41;100.00;100269.58;1723982;81;21081;-54
2022/12/31 15:41:52;;;;;;;24.20;15.77;;;;;;;5.43;100.00;100267.31;1721952;81;21115;-56
2022/12/31 15:44:48;;;;;;;24.02;17.05;;;;;;;5.43;100.00;100263.31;1719770;81;21645;-56
2022/12/31 15:47:42;;;;;;;25.33;16.50;;;;;;;5.44;100.00;100264.19;1718968;81;21044;-54
2022/12/31 15:50:17;;;;;;;19.47;13.87;;;;;;;5.44;100.00;100270.86;1717169;81;22303;-55
2022/12/31 15:52:46;;;;;;;21.63;14.27;;;;;;;5.42;100.00;100276.68;1718323;81;21121;-54
2022/12/31 15:55:40;;;;;;;21.17;14.37;;;;;;;5.42;100.00;100278.02;1699661;81;21367;-56
2022/12/31 15:58:14;;;;;;;24.07;15.13;;;;;;;5.42;100.00;100270.89;1721769;81;21068;-55
2022/12/31 16:00:52;;;;;;;20.20;13.78;;;;;;;5.44;100.00;100273.08;1720607;81;21065;-55
2022/12/31 16:03:22;;;;;;;22.37;15.00;;;;;;;5.46;100.00;100272.57;1720037;81;22439;-54
2022/12/31 16:05:48;;;;;;;20.67;15.20;;;;;;;5.48;100.00;100269.88;1719138;81;21614;-56
2022/12/31 16:08:23;;;;;;;25.53;16.03;;;;;;;5.49;100.00;100263.63;1721581;81;21612;-58
2022/12/31 16:10:49;;;;;;;27.05;15.38;;;;;;;5.49;100.00;100266.30;1720427;81;21066;-52
2022/12/31 16:13:23;;;;;;;20.53;14.33;;;;;;;5.47;100.00;100266.78;1718821;81;21065;-53
2022/12/31 16:16:05;;;;;;;20.35;14.65;;;;;;;5.46;100.00;100266.34;1717912;81;22602;-52
2022/12/31 16:18:39;;;;;;;21.63;13.77;;;;;;;5.45;100.00;100267.25;1725532;81;21040;-54
2022/12/31 16:21:33;;;;;;;22.40;14.50;;;;;;;5.44;100.00;100266.86;1720613;81;21090;-55
2022/12/31 16:24:03;;;;;;;19.83;14.67;;;;;;;5.44;100.00;100262.41;1720410;81;21077;-51
2022/12/31 16:26:47;;;;;;;18.30;13.87;;;;;;;5.45;100.00;100265.47;1717834;81;21063;-52
2022/12/31 16:29:15;;;;;;;22.17;14.97;;;;;;;5.48;100.00;100256.53;1726588;81;22009;-52
2022/12/31 16:31:42;;;;;;;22.37;15.00;;;;;;;5.49;100.00;100251.62;1718005;81;21012;-52
2022/12/31 16:34:15;;;;;;;23.13;15.00;;;;;;;5.50;100.00;100258.72;1665946;83;21080;-53
2022/12/31 16:36:57;;;;;;;25.27;16.93;;;;;;;5.51;100.00;100255.14;1683627;83;22314;-54
2022/12/31 16:39:31;;;;;;;21.02;15.50;;;;;;;5.51;100.00;100247.13;1684958;83;21022;-56
2022/12/31 16:42:17;;;;;;;18.17;13.40;;;;;;;5.51;100.00;100244.47;1685457;83;22706;-53
2022/12/31 16:44:43;;;;;;;24.10;14.63;;;;;;;5.50;100.00;100245.38;1672428;83;21104;-54
2022/12/31 16:47:33;;;;;;;22.67;16.23;;;;;;;5.48;100.00;100235.17;1673734;83;21123;-53
2022/12/31 16:50:16;;;;;;;22.47;14.83;;;;;;;5.48;100.00;100229.83;1673392;83;21106;-56
2022/12/31 16:52:44;;;;;;;20.80;15.27;;;;;;;5.46;100.00;100230.30;1602479;86;21082;-53
2022/12/31 16:55:20;;;;;;;24.47;16.90;;;;;;;5.47;100.00;100238.74;1688317;83;21761;-53
2022/12/31 16:57:52;;;;;;;22.67;17.17;;;;;;;5.47;100.00;100237.41;1660553;83;21612;-54
2022/12/31 17:00:17;;;;;;;26.67;17.07;;;;;;;5.47;100.00;100231.62;1684225;83;21017;-54
2022/12/31 17:02:59;;;;;;;21.63;16.53;;;;;;;5.48;100.00;100232.50;1684450;83;21401;-54
2022/12/31 17:05:25;;;;;;;26.60;15.10;;;;;;;5.48;100.00;100236.50;1681771;83;21133;-55
2022/12/31 17:07:52;;;;;;;19.73;14.30;;;;;;;5.46;100.00;100239.66;1687416;83;21908;-54
2022/12/31 17:10:22;;;;;;;18.33;14.23;;;;;;;5.46;100.00;100239.66;1685255;83;21063;-55
2022/12/31 17:12:59;;;;;;;23.70;14.43;;;;;;;5.45;100.00;100240.10;1684570;83;21099;-54
2022/12/31 17:15:41;;;;;;;18.50;13.80;;;;;;;5.44;100.00;100242.38;1680934;83;21059;-55
2022/12/31 17:18:16;;;;;;;22.58;12.88;;;;;;;5.44;100.00;100238.38;1682899;83;21064;-53
2022/12/31 17:20:43;;;;;;;20.27;13.60;;;;;;;5.43;100.00;100232.60;1684553;83;22499;-54
2022/12/31 17:23:12;;;;;;;18.57;14.20;;;;;;;5.43;100.00;100236.61;1684266;83;22294;-57
2022/12/31 17:25:39;;;;;;;22.00;12.67;;;;;;;5.42;100.00;100230.84;1657110;83;21064;-54
2022/12/31 17:28:21;;;;;;;16.67;13.43;;;;;;;5.40;100.00;100227.31;1684461;83;21487;-53
2022/12/31 17:30:47;;;;;;;21.17;13.90;;;;;;;5.38;100.00;100227.79;1680834;83;21981;-54
2022/12/31 17:33:22;;;;;;;16.13;12.00;;;;;;;5.35;100.00;100229.20;1681895;83;21860;-54
2022/12/31 17:35:55;;;;;;;16.80;12.13;;;;;;;5.35;100.00;100226.99;1684846;83;21049;-53
2022/12/31 17:38:29;;;;;;;13.93;10.10;;;;;;;5.34;100.00;100227.44;1685999;83;21089;-55
2022/12/31 17:41:10;;;;;;;16.10;11.25;;;;;;;5.34;100.00;100226.11;1683495;83;21049;-55
2022/12/31 17:43:37;;;;;;;17.93;10.90;;;;;;;5.33;100.00;100229.69;1678583;83;21083;-57
2022/12/31 17:46:14;;;;;;;16.50;11.00;;;;;;;5.32;100.00;100218.12;1653313;85;22609;-52
2022/12/31 17:48:41;;;;;;;16.20;11.70;;;;;;;5.32;100.00;100218.58;1648565;85;21117;-53
2022/12/31 17:51:07;;;;;;;16.27;11.33;;;;;;;5.31;100.00;100220.36;1626829;85;21112;-54
2022/12/31 17:53:34;;;;;;;16.25;11.00;;;;;;;5.30;100.00;100216.38;1677595;83;22468;-53
2022/12/31 17:56:03;;;;;;;15.60;11.33;;;;;;;5.29;100.00;100217.29;1720622;81;21311;-52
2022/12/31 17:58:46;;;;;;;16.90;10.27;;;;;;;5.28;100.00;100216.41;1717952;81;21803;-55
2022/12/31 18:01:15;;;;;;;14.33;10.80;;;;;;;5.27;100.00;100223.98;1703599;81;21070;-54
2022/12/31 18:03:42;;;;;;;16.43;12.27;;;;;;;5.27;100.00;100220.47;1713598;81;21081;-54
2022/12/31 18:06:10;;;;;;;15.30;9.90;;;;;;;5.28;100.00;100227.09;1711467;81;21070;-55
2022/12/31 18:08:37;;;;;;;15.83;11.37;;;;;;;5.29;100.00;100228.84;1713283;81;21069;-55
2022/12/31 18:11:05;;;;;;;15.47;10.83;;;;;;;5.30;100.00;100223.94;1713919;81;21823;-54
2022/12/31 18:13:32;;;;;;;14.83;10.60;;;;;;;5.30;100.00;100229.28;1712916;81;21327;-55
2022/12/31 18:15:58;;;;;;;17.47;10.80;;;;;;;5.29;100.00;100234.19;1720450;82;21042;-56
2022/12/31 18:18:31;;;;;;;13.17;10.23;;;;;;;5.29;100.00;100233.30;1720583;81;21311;-53
2022/12/31 18:21:01;;;;;;;16.20;9.07;;;;;;;5.29;100.00;100231.52;1712627;81;21543;-53
2022/12/31 18:23:37;;;;;;;14.03;9.47;;;;;;;5.29;100.00;100235.97;1715676;81;21835;-54
2022/12/31 18:26:03;;;;;;;16.77;10.27;;;;;;;5.28;100.00;100232.88;1714939;82;21077;-54
2022/12/31 18:28:30;;;;;;;13.63;9.47;;;;;;;5.28;100.00;100239.09;1728475;81;21496;-54
2022/12/31 18:30:57;;;;;;;16.20;10.13;;;;;;;5.30;100.00;100245.75;1723833;81;21060;-53
2022/12/31 18:33:24;;;;;;;13.77;9.13;;;;;;;5.32;100.00;100251.49;1721524;81;21052;-54
2022/12/31 18:35:51;;;;;;;14.17;8.80;;;;;;;5.37;100.00;100262.06;1712741;81;22549;-57
2022/12/31 18:38:19;;;;;;;13.38;9.08;;;;;;;5.44;100.00;100268.20;1717581;81;21838;-53
2022/12/31 18:40:57;;;;;;;13.93;9.67;;;;;;;5.47;100.00;100266.33;1683426;83;21084;-54
2022/12/31 18:43:23;;;;;;;16.83;8.90;;;;;;;5.51;100.00;100263.16;1670390;84;21073;-56
2022/12/31 18:45:50;;;;;;;14.15;10.50;;;;;;;5.53;100.00;100268.02;1665442;84;21085;-53
2022/12/31 18:48:17;;;;;;;10.53;8.83;;;;;;;5.52;100.00;100263.58;1670657;84;21844;-57
2022/12/31 18:50:43;;;;;;;15.10;9.80;;;;;;;5.52;100.00;100260.46;1671006;84;21073;-56
2022/12/31 18:53:14;;;;;;;12.07;8.77;;;;;;;5.54;100.00;100259.06;1670555;84;21043;-56
2022/12/31 18:55:51;;;;;;;15.10;8.33;;;;;;;5.55;100.00;100261.71;1671423;84;21061;-52
2022/12/31 18:58:17;;;;;;;10.50;7.97;;;;;;;5.57;100.00;100251.89;1666535;84;21118;-56
2022/12/31 19:00:44;;;;;;;12.47;8.27;;;;;;;5.59;100.00;100243.85;1667316;84;21937;-52
2022/12/31 19:03:21;;;;;;;10.68;8.03;;;;;;;5.62;100.00;100240.64;1667148;84;21145;-54
2022/12/31 19:05:49;;;;;;;10.85;7.85;;;;;;;5.66;100.00;100236.14;1669993;84;21542;-54
2022/12/31 19:08:19;;;;;;;12.63;8.80;;;;;;;5.67;100.00;100224.09;1672311;84;22174;-55
2022/12/31 19:10:48;;;;;;;13.30;9.13;;;;;;;5.66;100.00;100218.77;1667117;84;21142;-53
2022/12/31 19:13:16;;;;;;;12.30;9.43;;;;;;;5.65;100.00;100210.33;1672154;84;21960;-51
2022/12/31 19:15:49;;;;;;;10.27;8.60;;;;;;;5.63;100.00;100194.34;1665950;84;21042;-52
2022/12/31 19:18:16;;;;;;;8.47;6.97;;;;;;;5.59;100.00;100189.98;1668421;84;21362;-53
2022/12/31 19:20:42;;;;;;;12.23;8.77;;;;;;;5.57;100.00;100176.23;1712655;81;21042;-53
2022/12/31 19:23:16;;;;;;;10.13;7.93;;;;;;;5.56;100.00;100179.36;1714057;81;21617;-56
2022/12/31 19:25:43;;;;;;;11.22;8.33;;;;;;;5.54;100.00;100182.52;1717979;81;21822;-53
2022/12/31 19:28:25;;;;;;;10.95;8.33;;;;;;;5.53;100.00;100179.41;1714240;81;21599;-52
2022/12/31 19:30:51;;;;;;;8.07;7.00;;;;;;;5.53;100.00;100178.08;1713682;81;21086;-56
2022/12/31 19:33:19;;;;;;;10.03;7.77;;;;;;;5.53;100.00;100180.75;1717640;81;21107;-52
2022/12/31 19:35:46;;;;;;;11.20;8.27;;;;;;;5.52;100.00;100180.80;1717926;81;21112;-52
2022/12/31 19:38:19;;;;;;;8.53;6.60;;;;;;;5.51;100.00;100180.38;1717838;81;21826;-54
2022/12/31 19:40:46;;;;;;;9.60;7.93;;;;;;;5.51;100.00;100192.40;1712057;81;21164;-53
2022/12/31 19:43:14;;;;;;;9.80;7.30;;;;;;;5.51;100.00;100189.72;1717204;81;21077;-53
2022/12/31 19:45:41;;;;;;;8.27;7.30;;;;;;;5.51;100.00;100194.61;1711454;81;21055;-53
2022/12/31 19:48:11;;;;;;;8.93;6.93;;;;;;;5.54;100.00;100201.66;1718541;81;21059;-54
2022/12/31 19:50:46;;;;;;;9.83;6.20;;;;;;;5.56;100.00;100199.84;1716975;81;21801;-55
2022/12/31 19:53:17;;;;;;;9.87;6.83;;;;;;;5.59;100.00;100197.12;1722841;81;21478;-54
2022/12/31 19:55:45;;;;;;;8.93;7.58;;;;;;;5.63;100.00;100206.36;1719912;81;21745;-53
2022/12/31 19:58:18;;;;;;;8.87;7.20;;;;;;;5.65;100.00;100209.88;1724552;81;21409;-54
2022/12/31 20:00:46;;;;;;;10.17;7.47;;;;;;;5.66;100.00;100196.08;1721334;81;21072;-52
2022/12/31 20:03:14;;;;;;;8.33;6.87;;;;;;;5.69;100.00;100188.89;1727598;81;21783;-53
2022/12/31 20:05:42;;;;;;;8.83;7.13;;;;;;;5.69;100.00;100186.22;1720913;81;21117;-54
2022/12/31 20:08:08;;;;;;;8.13;6.27;;;;;;;5.70;100.00;100189.28;1723361;81;21513;-53
2022/12/31 20:10:36;;;;;;;10.57;6.97;;;;;;;5.71;100.00;100184.82;1728815;81;21554;-53
2022/12/31 20:13:02;;;;;;;10.75;6.62;;;;;;;5.74;100.00;100191.45;1724212;81;21078;-52
2022/12/31 20:15:29;;;;;;;10.05;6.33;;;;;;;5.78;100.00;100192.27;1717221;81;21937;-56
2022/12/31 20:17:58;;;;;;;7.85;6.87;;;;;;;5.79;100.00;100191.33;1722073;81;21002;-53
2022/12/31 20:20:27;;;;;;;8.98;6.50;;;;;;;5.82;100.00;100187.27;1727776;81;21049;-53
2022/12/31 20:22:56;;;;;;;8.10;6.87;;;;;;;5.86;100.00;100191.64;1720782;81;21101;-55
2022/12/31 20:25:24;;;;;;;9.93;7.47;;;;;;;5.89;100.00;100189.80;1723824;81;21060;-55
2022/12/31 20:27:53;;;;;;;9.63;7.17;;;;;;;5.89;100.00;100186.25;1719164;81;21957;-53
2022/12/31 20:30:21;;;;;;;10.28;7.05;;;;;;;5.90;100.00;100189.34;1715748;81;21100;-54
2022/12/31 20:32:50;;;;;;;7.75;5.78;;;;;;;5.90;100.00;100198.23;1726928;81;21092;-53
2022/12/31 20:35:18;;;;;;;6.50;5.07;;;;;;;5.91;100.00;100193.33;1686304;83;21152;-56
2022/12/31 20:37:44;;;;;;;6.20;5.53;;;;;;;5.93;100.00;100194.17;1683562;83;21095;-55
2022/12/31 20:40:13;;;;;;;7.72;5.87;;;;;;;5.96;100.00;100198.09;1688190;83;22583;-56
2022/12/31 20:42:40;;;;;;;6.97;5.97;;;;;;;5.99;100.00;100206.05;1685176;83;21344;-53
2022/12/31 20:45:09;;;;;;;10.08;7.35;;;;;;;6.00;100.00;100201.13;1688033;83;21559;-53
2022/12/31 20:47:37;;;;;;;8.80;7.35;;;;;;;6.05;100.00;100207.70;1685584;83;21957;-57
2022/12/31 20:50:07;;;;;;;11.03;7.30;;;;;;;6.08;100.00;100203.17;1684023;83;21050;-53
2022/12/31 20:52:35;;;;;;;10.93;7.87;;;;;;;6.07;100.00;100214.78;1684045;83;21904;-55
2022/12/31 20:55:02;;;;;;;9.25;7.62;;;;;;;6.07;100.00;100221.45;1718495;82;21565;-53